Aeroporto :
LOGIN :

Iscrizione | Disclaimer

   EN    FR    IT 

 










Sommario :    VFR   VFR Marginale   IFR   IFR Intensivo   IFR Molto Intensivo
Visibilità : 
Base nubi : 
>= 8 km
>= 3000ft
5 / 8 km
1000 / 3000 ft
1500m / 5 km
500 / 1000 ft
800 / 1500m
200 / 500 ft
< 800m
< 200 ft
Simboli :   Temporali  Nebbia  Neve Forte  Precipitazioni Forti  Vento > 20 kt
SIGMETs :   Varie  Temporali  Ghiacco  Turbolenza  Onda orograficha  Ceneri Vulcaniche






- Altitudine del aeroporto : 3 ft
- Codice IATA : LWR


EHLW - Leuuwarden Air Base

ULTIMO METAR :
  • 071225Z AUTO 10007KT 360V140 9999 NCD 31/15 Q1020 BLU NOSIG

METARs OBSOLETI :
  • 071155Z AUTO 11006KT 020V190 9999 NCD 31/13 Q1020 BLU NOSIG
  • 071125Z AUTO 09007KT 010V180 9999 NCD 31/15 Q1020 BLU NOSIG
  • 071055Z AUTO 12006KT 030V200 9999 NCD 30/13 Q1020 BLU NOSIG
  • 071025Z AUTO 13005KT 040V150 9999 NCD 30/12 Q1020 BLU NOSIG

TAF TAF EHLW
Valido dal 07 a 09 ore il 07 a 21 ore UTC


070815Z 0709/0721 13004KT CAVOK



MetMap, La meteo Aeronautica in un colpo d'occhio ! - Copyright ORBIFLY Dicembre 2007 - Disclaimer

ORBIFLY MET'MAP TEAM :

Programmazione e sviluppo : Alexandra Zaïnal
Concezione : Baudouin d'Aumeries
Aiuto per la programmazione : Marc-Olivier Méhu
Supporto tecnico e logistico : Manuel Goepfert
Aiuto per la traduzione : Arnaldo La Scala

Contatto : metmap@orbifly.com




FONTI E CREDITI :

   NOAA